sensor_id;sensor_type;location;lat;lon;timestamp;P1;durP1;ratioP1;P2;durP2;ratioP2
19231;SDS011;9750;48.730;10.294;2022-09-09T00:00:32;5.43;;;1.83;;
19231;SDS011;9750;48.730;10.294;2022-09-09T00:03:06;3.53;;;1.60;;
19231;SDS011;9750;48.730;10.294;2022-09-09T00:05:43;4.00;;;1.83;;
19231;SDS011;9750;48.730;10.294;2022-09-09T00:08:18;2.70;;;1.70;;
19231;SDS011;9750;48.730;10.294;2022-09-09T00:10:48;4.73;;;1.83;;
19231;SDS011;9750;48.730;10.294;2022-09-09T00:13:27;3.60;;;1.53;;
19231;SDS011;9750;48.730;10.294;2022-09-09T00:16:00;3.53;;;1.70;;
19231;SDS011;9750;48.730;10.294;2022-09-09T00:18:44;4.87;;;1.70;;
19231;SDS011;9750;48.730;10.294;2022-09-09T00:21:18;2.90;;;1.73;;
19231;SDS011;9750;48.730;10.294;2022-09-09T00:23:50;5.93;;;2.10;;
19231;SDS011;9750;48.730;10.294;2022-09-09T00:26:20;3.80;;;2.00;;
19231;SDS011;9750;48.730;10.294;2022-09-09T00:28:58;3.13;;;1.70;;
19231;SDS011;9750;48.730;10.294;2022-09-09T00:31:31;2.27;;;1.60;;
19231;SDS011;9750;48.730;10.294;2022-09-09T00:34:01;4.60;;;1.43;;
19231;SDS011;9750;48.730;10.294;2022-09-09T00:36:36;3.90;;;1.97;;
19231;SDS011;9750;48.730;10.294;2022-09-09T00:39:04;5.67;;;1.90;;
19231;SDS011;9750;48.730;10.294;2022-09-09T00:41:36;5.57;;;2.10;;
19231;SDS011;9750;48.730;10.294;2022-09-09T00:44:19;2.80;;;1.50;;
19231;SDS011;9750;48.730;10.294;2022-09-09T00:49:54;2.47;;;1.83;;
19231;SDS011;9750;48.730;10.294;2022-09-09T00:52:31;3.53;;;2.00;;
19231;SDS011;9750;48.730;10.294;2022-09-09T00:55:05;4.63;;;2.00;;
19231;SDS011;9750;48.730;10.294;2022-09-09T00:57:40;2.60;;;2.27;;
19231;SDS011;9750;48.730;10.294;2022-09-09T01:00:20;4.53;;;2.03;;
19231;SDS011;9750;48.730;10.294;2022-09-09T01:03:04;2.53;;;1.90;;
19231;SDS011;9750;48.730;10.294;2022-09-09T01:05:51;2.97;;;2.10;;
19231;SDS011;9750;48.730;10.294;2022-09-09T01:08:34;4.27;;;1.97;;
19231;SDS011;9750;48.730;10.294;2022-09-09T01:11:29;3.47;;;2.00;;
19231;SDS011;9750;48.730;10.294;2022-09-09T01:14:05;4.47;;;1.93;;
19231;SDS011;9750;48.730;10.294;2022-09-09T01:16:45;4.07;;;1.87;;
19231;SDS011;9750;48.730;10.294;2022-09-09T01:19:15;3.23;;;1.90;;
19231;SDS011;9750;48.730;10.294;2022-09-09T01:21:54;3.37;;;2.20;;
19231;SDS011;9750;48.730;10.294;2022-09-09T01:24:30;4.53;;;2.30;;
19231;SDS011;9750;48.730;10.294;2022-09-09T01:27:06;4.10;;;2.10;;
19231;SDS011;9750;48.730;10.294;2022-09-09T01:29:35;4.00;;;2.23;;
19231;SDS011;9750;48.730;10.294;2022-09-09T01:32:35;4.47;;;2.30;;
19231;SDS011;9750;48.730;10.294;2022-09-09T01:35:08;3.33;;;2.00;;
19231;SDS011;9750;48.730;10.294;2022-09-09T01:37:37;3.07;;;2.40;;
19231;SDS011;9750;48.730;10.294;2022-09-09T01:40:05;4.20;;;2.30;;
19231;SDS011;9750;48.730;10.294;2022-09-09T01:42:35;3.80;;;2.00;;
19231;SDS011;9750;48.730;10.294;2022-09-09T01:45:02;4.07;;;2.47;;
19231;SDS011;9750;48.730;10.294;2022-09-09T01:47:32;3.10;;;2.13;;
19231;SDS011;9750;48.730;10.294;2022-09-09T01:49:59;3.20;;;2.50;;
19231;SDS011;9750;48.730;10.294;2022-09-09T01:55:13;4.60;;;2.10;;
19231;SDS011;9750;48.730;10.294;2022-09-09T01:57:44;4.83;;;2.30;;
19231;SDS011;9750;48.730;10.294;2022-09-09T02:00:19;5.97;;;2.57;;
19231;SDS011;9750;48.730;10.294;2022-09-09T02:02:48;4.77;;;2.10;;
19231;SDS011;9750;48.730;10.294;2022-09-09T02:05:27;5.60;;;2.40;;
19231;SDS011;9750;48.730;10.294;2022-09-09T02:08:03;3.53;;;2.07;;
19231;SDS011;9750;48.730;10.294;2022-09-09T02:10:35;4.87;;;2.63;;
19231;SDS011;9750;48.730;10.294;2022-09-09T02:16:03;3.97;;;2.23;;
19231;SDS011;9750;48.730;10.294;2022-09-09T02:18:35;4.77;;;2.10;;
19231;SDS011;9750;48.730;10.294;2022-09-09T02:21:06;5.90;;;2.30;;
19231;SDS011;9750;48.730;10.294;2022-09-09T02:23:37;3.07;;;1.90;;
19231;SDS011;9750;48.730;10.294;2022-09-09T02:26:06;3.23;;;1.77;;
19231;SDS011;9750;48.730;10.294;2022-09-09T02:28:39;3.73;;;2.10;;
19231;SDS011;9750;48.730;10.294;2022-09-09T02:31:08;3.57;;;1.97;;
19231;SDS011;9750;48.730;10.294;2022-09-09T02:33:37;4.03;;;2.40;;
19231;SDS011;9750;48.730;10.294;2022-09-09T02:36:10;4.93;;;2.40;;
19231;SDS011;9750;48.730;10.294;2022-09-09T02:38:42;3.60;;;2.17;;
19231;SDS011;9750;48.730;10.294;2022-09-09T02:41:15;3.43;;;2.80;;
19231;SDS011;9750;48.730;10.294;2022-09-09T02:43:45;5.20;;;2.60;;
19231;SDS011;9750;48.730;10.294;2022-09-09T02:46:15;4.10;;;2.63;;
19231;SDS011;9750;48.730;10.294;2022-09-09T02:48:59;5.10;;;2.73;;
19231;SDS011;9750;48.730;10.294;2022-09-09T02:51:30;4.90;;;2.60;;
19231;SDS011;9750;48.730;10.294;2022-09-09T02:54:05;5.20;;;2.97;;
19231;SDS011;9750;48.730;10.294;2022-09-09T02:56:39;3.33;;;2.23;;
19231;SDS011;9750;48.730;10.294;2022-09-09T02:59:13;5.60;;;2.57;;
19231;SDS011;9750;48.730;10.294;2022-09-09T03:01:41;5.10;;;2.00;;
19231;SDS011;9750;48.730;10.294;2022-09-09T03:04:09;4.60;;;2.00;;
19231;SDS011;9750;48.730;10.294;2022-09-09T03:06:36;3.47;;;2.10;;
19231;SDS011;9750;48.730;10.294;2022-09-09T03:09:03;4.47;;;3.47;;
19231;SDS011;9750;48.730;10.294;2022-09-09T03:11:31;5.07;;;3.27;;
19231;SDS011;9750;48.730;10.294;2022-09-09T03:13:58;5.10;;;3.10;;
19231;SDS011;9750;48.730;10.294;2022-09-09T03:16:27;5.47;;;2.57;;
19231;SDS011;9750;48.730;10.294;2022-09-09T03:18:55;4.83;;;2.20;;
19231;SDS011;9750;48.730;10.294;2022-09-09T03:21:22;2.80;;;2.10;;
19231;SDS011;9750;48.730;10.294;2022-09-09T03:23:49;5.87;;;2.70;;
19231;SDS011;9750;48.730;10.294;2022-09-09T03:26:17;4.53;;;2.47;;
19231;SDS011;9750;48.730;10.294;2022-09-09T03:28:45;5.73;;;2.67;;
19231;SDS011;9750;48.730;10.294;2022-09-09T03:34:23;5.03;;;2.40;;
19231;SDS011;9750;48.730;10.294;2022-09-09T03:36:50;4.70;;;2.50;;
19231;SDS011;9750;48.730;10.294;2022-09-09T03:39:17;3.33;;;1.80;;
19231;SDS011;9750;48.730;10.294;2022-09-09T03:41:45;4.17;;;2.30;;
19231;SDS011;9750;48.730;10.294;2022-09-09T03:44:13;2.43;;;1.97;;
19231;SDS011;9750;48.730;10.294;2022-09-09T03:46:41;4.37;;;1.87;;
19231;SDS011;9750;48.730;10.294;2022-09-09T03:49:08;5.97;;;3.97;;
19231;SDS011;9750;48.730;10.294;2022-09-09T03:51:37;5.47;;;3.50;;
19231;SDS011;9750;48.730;10.294;2022-09-09T03:54:05;3.30;;;2.73;;
19231;SDS011;9750;48.730;10.294;2022-09-09T03:56:35;4.00;;;2.90;;
19231;SDS011;9750;48.730;10.294;2022-09-09T03:59:03;3.87;;;3.27;;
19231;SDS011;9750;48.730;10.294;2022-09-09T04:01:30;5.70;;;3.70;;
19231;SDS011;9750;48.730;10.294;2022-09-09T04:03:58;5.10;;;2.70;;
19231;SDS011;9750;48.730;10.294;2022-09-09T04:06:27;4.47;;;2.80;;
19231;SDS011;9750;48.730;10.294;2022-09-09T04:08:56;4.03;;;3.00;;
19231;SDS011;9750;48.730;10.294;2022-09-09T04:11:24;4.00;;;2.80;;
19231;SDS011;9750;48.730;10.294;2022-09-09T04:13:51;6.03;;;2.90;;
19231;SDS011;9750;48.730;10.294;2022-09-09T04:16:18;4.10;;;3.10;;
19231;SDS011;9750;48.730;10.294;2022-09-09T04:18:46;4.53;;;2.90;;
19231;SDS011;9750;48.730;10.294;2022-09-09T04:21:13;5.87;;;3.23;;
19231;SDS011;9750;48.730;10.294;2022-09-09T04:23:41;4.20;;;3.03;;
19231;SDS011;9750;48.730;10.294;2022-09-09T04:26:10;5.40;;;3.00;;
19231;SDS011;9750;48.730;10.294;2022-09-09T04:28:37;4.53;;;2.80;;
19231;SDS011;9750;48.730;10.294;2022-09-09T04:31:05;3.33;;;2.87;;
19231;SDS011;9750;48.730;10.294;2022-09-09T04:33:34;5.53;;;2.70;;
19231;SDS011;9750;48.730;10.294;2022-09-09T04:36:02;4.10;;;3.00;;
19231;SDS011;9750;48.730;10.294;2022-09-09T04:38:30;5.20;;;2.70;;
19231;SDS011;9750;48.730;10.294;2022-09-09T04:40:57;4.60;;;2.80;;
19231;SDS011;9750;48.730;10.294;2022-09-09T04:43:26;2.87;;;1.80;;
19231;SDS011;9750;48.730;10.294;2022-09-09T04:45:53;2.80;;;1.87;;
19231;SDS011;9750;48.730;10.294;2022-09-09T04:48:21;2.60;;;1.70;;
19231;SDS011;9750;48.730;10.294;2022-09-09T04:50:56;4.93;;;2.20;;
19231;SDS011;9750;48.730;10.294;2022-09-09T04:53:24;2.87;;;1.80;;
19231;SDS011;9750;48.730;10.294;2022-09-09T04:55:52;4.93;;;2.10;;
19231;SDS011;9750;48.730;10.294;2022-09-09T04:58:28;3.70;;;2.00;;
19231;SDS011;9750;48.730;10.294;2022-09-09T05:01:02;5.43;;;2.23;;
19231;SDS011;9750;48.730;10.294;2022-09-09T05:03:30;5.63;;;2.43;;
19231;SDS011;9750;48.730;10.294;2022-09-09T05:06:01;3.80;;;2.00;;
19231;SDS011;9750;48.730;10.294;2022-09-09T05:08:31;4.33;;;1.97;;
19231;SDS011;9750;48.730;10.294;2022-09-09T05:10:58;5.53;;;2.10;;
19231;SDS011;9750;48.730;10.294;2022-09-09T05:13:25;3.30;;;2.10;;
19231;SDS011;9750;48.730;10.294;2022-09-09T05:15:56;5.50;;;2.13;;
19231;SDS011;9750;48.730;10.294;2022-09-09T05:18:24;2.97;;;1.97;;
19231;SDS011;9750;48.730;10.294;2022-09-09T05:20:51;4.60;;;2.00;;
19231;SDS011;9750;48.730;10.294;2022-09-09T05:23:19;4.67;;;2.30;;
19231;SDS011;9750;48.730;10.294;2022-09-09T05:25:54;4.37;;;1.77;;
19231;SDS011;9750;48.730;10.294;2022-09-09T05:28:22;2.50;;;1.93;;
19231;SDS011;9750;48.730;10.294;2022-09-09T05:30:59;7.67;;;2.50;;
19231;SDS011;9750;48.730;10.294;2022-09-09T05:33:29;3.50;;;1.90;;
19231;SDS011;9750;48.730;10.294;2022-09-09T05:35:57;3.80;;;1.90;;
19231;SDS011;9750;48.730;10.294;2022-09-09T05:38:25;4.20;;;1.77;;
19231;SDS011;9750;48.730;10.294;2022-09-09T05:40:52;3.57;;;2.10;;
19231;SDS011;9750;48.730;10.294;2022-09-09T05:43:21;4.07;;;2.27;;
19231;SDS011;9750;48.730;10.294;2022-09-09T05:45:48;3.60;;;2.33;;
19231;SDS011;9750;48.730;10.294;2022-09-09T05:48:29;2.70;;;2.50;;
19231;SDS011;9750;48.730;10.294;2022-09-09T05:50:57;5.20;;;2.23;;
19231;SDS011;9750;48.730;10.294;2022-09-09T05:53:25;4.30;;;2.50;;
19231;SDS011;9750;48.730;10.294;2022-09-09T05:55:58;3.20;;;2.70;;
19231;SDS011;9750;48.730;10.294;2022-09-09T05:58:26;4.07;;;3.00;;
19231;SDS011;9750;48.730;10.294;2022-09-09T06:01:01;4.07;;;2.70;;
19231;SDS011;9750;48.730;10.294;2022-09-09T06:03:29;3.53;;;2.50;;
19231;SDS011;9750;48.730;10.294;2022-09-09T06:05:57;4.30;;;2.40;;
19231;SDS011;9750;48.730;10.294;2022-09-09T06:08:25;2.90;;;2.00;;
19231;SDS011;9750;48.730;10.294;2022-09-09T06:10:53;3.53;;;2.07;;
19231;SDS011;9750;48.730;10.294;2022-09-09T06:13:27;2.77;;;2.00;;
19231;SDS011;9750;48.730;10.294;2022-09-09T06:15:55;4.33;;;2.03;;
19231;SDS011;9750;48.730;10.294;2022-09-09T06:18:25;2.77;;;1.93;;
19231;SDS011;9750;48.730;10.294;2022-09-09T06:20:53;1.90;;;1.70;;
19231;SDS011;9750;48.730;10.294;2022-09-09T06:23:21;4.43;;;1.90;;
19231;SDS011;9750;48.730;10.294;2022-09-09T06:25:49;2.67;;;1.80;;
19231;SDS011;9750;48.730;10.294;2022-09-09T06:28:16;4.57;;;1.93;;
19231;SDS011;9750;48.730;10.294;2022-09-09T06:30:44;2.60;;;1.70;;
19231;SDS011;9750;48.730;10.294;2022-09-09T06:33:14;4.40;;;2.03;;
19231;SDS011;9750;48.730;10.294;2022-09-09T06:35:43;4.23;;;2.07;;
19231;SDS011;9750;48.730;10.294;2022-09-09T06:38:18;3.73;;;2.20;;
19231;SDS011;9750;48.730;10.294;2022-09-09T06:40:50;2.73;;;1.90;;
19231;SDS011;9750;48.730;10.294;2022-09-09T06:43:20;4.07;;;1.80;;
19231;SDS011;9750;48.730;10.294;2022-09-09T06:45:52;4.80;;;1.93;;
19231;SDS011;9750;48.730;10.294;2022-09-09T06:48:21;4.17;;;2.30;;
19231;SDS011;9750;48.730;10.294;2022-09-09T06:50:50;2.83;;;1.80;;
19231;SDS011;9750;48.730;10.294;2022-09-09T06:53:17;3.67;;;2.00;;
19231;SDS011;9750;48.730;10.294;2022-09-09T06:55:45;2.67;;;2.27;;
19231;SDS011;9750;48.730;10.294;2022-09-09T06:58:13;4.93;;;2.50;;
19231;SDS011;9750;48.730;10.294;2022-09-09T07:00:40;3.87;;;2.70;;
19231;SDS011;9750;48.730;10.294;2022-09-09T07:06:23;3.50;;;1.87;;
19231;SDS011;9750;48.730;10.294;2022-09-09T07:08:53;6.93;;;2.37;;
19231;SDS011;9750;48.730;10.294;2022-09-09T07:11:22;4.73;;;1.83;;
19231;SDS011;9750;48.730;10.294;2022-09-09T07:13:50;6.83;;;2.47;;
19231;SDS011;9750;48.730;10.294;2022-09-09T07:16:18;2.63;;;1.93;;
19231;SDS011;9750;48.730;10.294;2022-09-09T07:18:48;2.70;;;1.80;;
19231;SDS011;9750;48.730;10.294;2022-09-09T07:21:16;2.87;;;1.90;;
19231;SDS011;9750;48.730;10.294;2022-09-09T07:23:45;2.57;;;1.80;;
19231;SDS011;9750;48.730;10.294;2022-09-09T07:26:13;3.27;;;2.10;;
19231;SDS011;9750;48.730;10.294;2022-09-09T07:28:42;5.43;;;2.00;;
19231;SDS011;9750;48.730;10.294;2022-09-09T07:31:12;2.30;;;1.97;;
19231;SDS011;9750;48.730;10.294;2022-09-09T07:33:41;4.13;;;2.23;;
19231;SDS011;9750;48.730;10.294;2022-09-09T07:36:10;5.30;;;2.20;;
19231;SDS011;9750;48.730;10.294;2022-09-09T07:38:40;2.93;;;1.87;;
19231;SDS011;9750;48.730;10.294;2022-09-09T07:47:55;3.70;;;2.10;;
19231;SDS011;9750;48.730;10.294;2022-09-09T07:50:23;3.23;;;2.13;;
19231;SDS011;9750;48.730;10.294;2022-09-09T07:52:50;4.80;;;1.80;;
19231;SDS011;9750;48.730;10.294;2022-09-09T07:55:18;5.20;;;1.90;;
19231;SDS011;9750;48.730;10.294;2022-09-09T07:57:46;4.53;;;1.77;;
19231;SDS011;9750;48.730;10.294;2022-09-09T08:00:13;3.20;;;1.87;;
19231;SDS011;9750;48.730;10.294;2022-09-09T08:02:41;2.87;;;1.90;;
19231;SDS011;9750;48.730;10.294;2022-09-09T08:05:10;4.00;;;1.93;;
19231;SDS011;9750;48.730;10.294;2022-09-09T08:07:37;2.70;;;1.67;;
19231;SDS011;9750;48.730;10.294;2022-09-09T08:10:05;5.30;;;2.23;;
19231;SDS011;9750;48.730;10.294;2022-09-09T08:15:33;2.30;;;2.10;;
19231;SDS011;9750;48.730;10.294;2022-09-09T08:18:00;3.70;;;1.90;;
19231;SDS011;9750;48.730;10.294;2022-09-09T08:20:29;2.73;;;2.00;;
19231;SDS011;9750;48.730;10.294;2022-09-09T08:22:56;4.00;;;1.90;;
19231;SDS011;9750;48.730;10.294;2022-09-09T08:25:24;3.53;;;1.80;;
19231;SDS011;9750;48.730;10.294;2022-09-09T08:27:52;3.37;;;1.83;;
19231;SDS011;9750;48.730;10.294;2022-09-09T08:30:21;2.37;;;1.60;;
19231;SDS011;9750;48.730;10.294;2022-09-09T08:32:48;2.70;;;1.70;;
19231;SDS011;9750;48.730;10.294;2022-09-09T08:35:16;4.40;;;2.00;;
19231;SDS011;9750;48.730;10.294;2022-09-09T08:37:45;4.23;;;2.33;;
19231;SDS011;9750;48.730;10.294;2022-09-09T08:40:16;2.80;;;2.00;;
19231;SDS011;9750;48.730;10.294;2022-09-09T08:42:49;2.73;;;1.97;;
19231;SDS011;9750;48.730;10.294;2022-09-09T08:45:24;3.47;;;2.10;;
19231;SDS011;9750;48.730;10.294;2022-09-09T08:48:12;2.73;;;1.90;;
19231;SDS011;9750;48.730;10.294;2022-09-09T08:50:48;2.67;;;1.73;;
19231;SDS011;9750;48.730;10.294;2022-09-09T08:53:19;4.07;;;1.90;;
19231;SDS011;9750;48.730;10.294;2022-09-09T08:55:50;4.90;;;2.23;;
19231;SDS011;9750;48.730;10.294;2022-09-09T08:58:20;3.63;;;1.93;;
19231;SDS011;9750;48.730;10.294;2022-09-09T09:00:57;3.53;;;2.03;;
19231;SDS011;9750;48.730;10.294;2022-09-09T09:03:43;4.80;;;2.30;;
19231;SDS011;9750;48.730;10.294;2022-09-09T09:06:21;3.73;;;2.30;;
19231;SDS011;9750;48.730;10.294;2022-09-09T09:08:59;5.25;;;2.40;;
19231;SDS011;9750;48.730;10.294;2022-09-09T09:11:33;4.82;;;2.08;;
19231;SDS011;9750;48.730;10.294;2022-09-09T09:14:03;4.68;;;2.45;;
19231;SDS011;9750;48.730;10.294;2022-09-09T09:16:39;4.57;;;2.10;;
19231;SDS011;9750;48.730;10.294;2022-09-09T09:19:14;4.38;;;2.10;;
19231;SDS011;9750;48.730;10.294;2022-09-09T09:21:43;3.00;;;1.83;;
19231;SDS011;9750;48.730;10.294;2022-09-09T09:24:16;4.13;;;2.00;;
19231;SDS011;9750;48.730;10.294;2022-09-09T09:26:46;5.53;;;2.25;;
19231;SDS011;9750;48.730;10.294;2022-09-09T09:29:15;4.78;;;2.00;;
19231;SDS011;9750;48.730;10.294;2022-09-09T09:31:45;3.17;;;1.92;;
19231;SDS011;9750;48.730;10.294;2022-09-09T09:34:17;3.58;;;2.03;;
19231;SDS011;9750;48.730;10.294;2022-09-09T09:36:45;3.20;;;1.90;;
19231;SDS011;9750;48.730;10.294;2022-09-09T09:39:26;4.43;;;1.80;;
19231;SDS011;9750;48.730;10.294;2022-09-09T09:41:54;1.90;;;1.52;;
19231;SDS011;9750;48.730;10.294;2022-09-09T09:44:23;3.25;;;1.70;;
19231;SDS011;9750;48.730;10.294;2022-09-09T09:46:53;4.05;;;1.73;;
19231;SDS011;9750;48.730;10.294;2022-09-09T09:49:32;4.85;;;1.58;;
19231;SDS011;9750;48.730;10.294;2022-09-09T09:52:00;4.65;;;1.90;;
19231;SDS011;9750;48.730;10.294;2022-09-09T09:54:29;3.15;;;1.88;;
19231;SDS011;9750;48.730;10.294;2022-09-09T09:57:08;2.88;;;1.75;;
19231;SDS011;9750;48.730;10.294;2022-09-09T09:59:36;3.33;;;1.80;;
19231;SDS011;9750;48.730;10.294;2022-09-09T10:02:15;6.57;;;2.17;;
19231;SDS011;9750;48.730;10.294;2022-09-09T10:04:45;3.28;;;1.70;;
19231;SDS011;9750;48.730;10.294;2022-09-09T10:07:12;5.57;;;2.05;;
19231;SDS011;9750;48.730;10.294;2022-09-09T10:09:45;5.32;;;2.05;;
19231;SDS011;9750;48.730;10.294;2022-09-09T10:12:19;6.43;;;2.00;;
19231;SDS011;9750;48.730;10.294;2022-09-09T10:14:56;4.43;;;1.88;;
19231;SDS011;9750;48.730;10.294;2022-09-09T10:17:33;3.78;;;1.98;;
19231;SDS011;9750;48.730;10.294;2022-09-09T10:20:14;5.53;;;2.25;;
19231;SDS011;9750;48.730;10.294;2022-09-09T10:22:52;3.50;;;1.60;;
19231;SDS011;9750;48.730;10.294;2022-09-09T10:25:33;3.85;;;1.90;;
19231;SDS011;9750;48.730;10.294;2022-09-09T10:31:17;4.47;;;1.83;;
19231;SDS011;9750;48.730;10.294;2022-09-09T10:33:51;4.30;;;1.60;;
19231;SDS011;9750;48.730;10.294;2022-09-09T10:36:29;2.70;;;1.80;;
19231;SDS011;9750;48.730;10.294;2022-09-09T10:38:57;4.00;;;1.83;;
19231;SDS011;9750;48.730;10.294;2022-09-09T10:41:39;4.03;;;1.70;;
19231;SDS011;9750;48.730;10.294;2022-09-09T10:44:31;4.22;;;1.58;;
19231;SDS011;9750;48.730;10.294;2022-09-09T10:47:22;4.88;;;1.80;;
19231;SDS011;9750;48.730;10.294;2022-09-09T10:50:06;2.72;;;1.50;;
19231;SDS011;9750;48.730;10.294;2022-09-09T10:52:43;5.78;;;1.85;;
19231;SDS011;9750;48.730;10.294;2022-09-09T10:55:22;4.53;;;1.73;;
19231;SDS011;9750;48.730;10.294;2022-09-09T10:57:54;5.20;;;2.10;;
19231;SDS011;9750;48.730;10.294;2022-09-09T11:00:25;4.25;;;1.80;;
19231;SDS011;9750;48.730;10.294;2022-09-09T11:02:58;3.15;;;1.60;;
19231;SDS011;9750;48.730;10.294;2022-09-09T11:05:29;3.28;;;1.67;;
19231;SDS011;9750;48.730;10.294;2022-09-09T11:08:01;4.07;;;1.80;;
19231;SDS011;9750;48.730;10.294;2022-09-09T11:10:34;2.88;;;1.60;;
19231;SDS011;9750;48.730;10.294;2022-09-09T11:13:10;3.13;;;1.50;;
19231;SDS011;9750;48.730;10.294;2022-09-09T11:15:43;2.90;;;1.52;;
19231;SDS011;9750;48.730;10.294;2022-09-09T11:18:15;3.22;;;1.63;;
19231;SDS011;9750;48.730;10.294;2022-09-09T11:20:47;4.43;;;1.70;;
19231;SDS011;9750;48.730;10.294;2022-09-09T11:23:17;2.00;;;1.52;;
19231;SDS011;9750;48.730;10.294;2022-09-09T11:25:50;3.70;;;1.67;;
19231;SDS011;9750;48.730;10.294;2022-09-09T11:28:32;3.78;;;1.42;;
19231;SDS011;9750;48.730;10.294;2022-09-09T11:31:17;3.25;;;1.75;;
19231;SDS011;9750;48.730;10.294;2022-09-09T11:34:09;3.20;;;1.60;;
19231;SDS011;9750;48.730;10.294;2022-09-09T11:39:50;4.80;;;1.50;;
19231;SDS011;9750;48.730;10.294;2022-09-09T11:42:29;4.57;;;1.95;;
19231;SDS011;9750;48.730;10.294;2022-09-09T11:44:58;3.83;;;1.58;;
19231;SDS011;9750;48.730;10.294;2022-09-09T11:47:38;3.53;;;1.65;;
19231;SDS011;9750;48.730;10.294;2022-09-09T11:50:09;2.30;;;1.63;;
19231;SDS011;9750;48.730;10.294;2022-09-09T11:52:38;3.45;;;1.60;;
19231;SDS011;9750;48.730;10.294;2022-09-09T11:55:09;2.88;;;1.50;;
19231;SDS011;9750;48.730;10.294;2022-09-09T11:57:39;2.22;;;1.63;;
19231;SDS011;9750;48.730;10.294;2022-09-09T12:03:02;2.97;;;1.40;;
19231;SDS011;9750;48.730;10.294;2022-09-09T12:05:35;1.70;;;1.50;;
19231;SDS011;9750;48.730;10.294;2022-09-09T12:08:05;3.08;;;1.77;;
19231;SDS011;9750;48.730;10.294;2022-09-09T12:10:39;2.30;;;1.50;;
19231;SDS011;9750;48.730;10.294;2022-09-09T12:15:51;1.50;;;1.30;;
19231;SDS011;9750;48.730;10.294;2022-09-09T12:18:21;3.67;;;1.60;;
19231;SDS011;9750;48.730;10.294;2022-09-09T12:20:55;3.22;;;1.55;;
19231;SDS011;9750;48.730;10.294;2022-09-09T12:23:33;3.30;;;1.60;;
19231;SDS011;9750;48.730;10.294;2022-09-09T12:26:12;3.67;;;1.77;;
19231;SDS011;9750;48.730;10.294;2022-09-09T12:28:52;3.22;;;1.40;;
19231;SDS011;9750;48.730;10.294;2022-09-09T12:31:31;1.58;;;1.23;;
19231;SDS011;9750;48.730;10.294;2022-09-09T12:34:06;2.67;;;1.50;;
19231;SDS011;9750;48.730;10.294;2022-09-09T12:36:38;3.45;;;1.70;;
19231;SDS011;9750;48.730;10.294;2022-09-09T12:39:10;3.95;;;1.77;;
19231;SDS011;9750;48.730;10.294;2022-09-09T12:41:50;3.20;;;1.50;;
19231;SDS011;9750;48.730;10.294;2022-09-09T12:44:21;2.83;;;1.40;;
19231;SDS011;9750;48.730;10.294;2022-09-09T12:46:50;2.10;;;1.10;;
19231;SDS011;9750;48.730;10.294;2022-09-09T12:52:07;1.67;;;1.08;;
19231;SDS011;9750;48.730;10.294;2022-09-09T12:54:44;2.85;;;1.20;;
19231;SDS011;9750;48.730;10.294;2022-09-09T12:57:13;2.72;;;1.40;;
19231;SDS011;9750;48.730;10.294;2022-09-09T12:59:42;1.58;;;1.10;;
19231;SDS011;9750;48.730;10.294;2022-09-09T13:02:22;1.45;;;0.90;;
19231;SDS011;9750;48.730;10.294;2022-09-09T13:04:51;1.67;;;1.30;;
19231;SDS011;9750;48.730;10.294;2022-09-09T13:07:19;1.25;;;1.10;;
19231;SDS011;9750;48.730;10.294;2022-09-09T13:09:48;2.53;;;1.20;;
19231;SDS011;9750;48.730;10.294;2022-09-09T13:12:16;2.88;;;1.33;;
19231;SDS011;9750;48.730;10.294;2022-09-09T13:14:46;1.98;;;1.20;;
19231;SDS011;9750;48.730;10.294;2022-09-09T13:17:18;2.90;;;1.13;;
19231;SDS011;9750;48.730;10.294;2022-09-09T13:19:50;4.88;;;1.25;;
19231;SDS011;9750;48.730;10.294;2022-09-09T13:25:19;3.03;;;1.20;;
19231;SDS011;9750;48.730;10.294;2022-09-09T13:27:57;2.85;;;1.40;;
19231;SDS011;9750;48.730;10.294;2022-09-09T13:30:27;2.83;;;1.42;;
19231;SDS011;9750;48.730;10.294;2022-09-09T13:35:49;3.53;;;1.73;;
19231;SDS011;9750;48.730;10.294;2022-09-09T13:38:19;4.55;;;1.27;;
19231;SDS011;9750;48.730;10.294;2022-09-09T13:40:54;4.63;;;1.83;;
19231;SDS011;9750;48.730;10.294;2022-09-09T13:43:24;2.60;;;1.25;;
19231;SDS011;9750;48.730;10.294;2022-09-09T13:45:53;3.67;;;1.55;;
19231;SDS011;9750;48.730;10.294;2022-09-09T13:48:24;3.83;;;1.50;;
19231;SDS011;9750;48.730;10.294;2022-09-09T13:50:59;4.95;;;1.83;;
19231;SDS011;9750;48.730;10.294;2022-09-09T13:53:29;3.22;;;1.40;;
19231;SDS011;9750;48.730;10.294;2022-09-09T13:55:57;2.55;;;1.40;;
19231;SDS011;9750;48.730;10.294;2022-09-09T13:58:26;4.57;;;1.70;;
19231;SDS011;9750;48.730;10.294;2022-09-09T14:00:54;2.35;;;1.48;;
19231;SDS011;9750;48.730;10.294;2022-09-09T14:03:24;2.70;;;1.50;;
19231;SDS011;9750;48.730;10.294;2022-09-09T14:05:51;2.53;;;1.20;;
19231;SDS011;9750;48.730;10.294;2022-09-09T14:08:23;2.45;;;1.60;;
19231;SDS011;9750;48.730;10.294;2022-09-09T14:10:53;2.70;;;1.23;;
19231;SDS011;9750;48.730;10.294;2022-09-09T14:13:22;2.05;;;1.30;;
19231;SDS011;9750;48.730;10.294;2022-09-09T14:15:49;1.98;;;1.20;;
19231;SDS011;9750;48.730;10.294;2022-09-09T14:18:17;3.50;;;1.40;;
19231;SDS011;9750;48.730;10.294;2022-09-09T14:20:46;2.65;;;1.40;;
19231;SDS011;9750;48.730;10.294;2022-09-09T14:23:13;5.05;;;1.40;;
19231;SDS011;9750;48.730;10.294;2022-09-09T14:25:41;2.47;;;1.35;;
19231;SDS011;9750;48.730;10.294;2022-09-09T14:28:09;4.45;;;1.30;;
19231;SDS011;9750;48.730;10.294;2022-09-09T14:30:39;4.18;;;1.35;;
19231;SDS011;9750;48.730;10.294;2022-09-09T14:36:06;5.72;;;1.40;;
19231;SDS011;9750;48.730;10.294;2022-09-09T14:38:35;3.90;;;1.40;;
19231;SDS011;9750;48.730;10.294;2022-09-09T14:41:04;2.63;;;1.50;;
19231;SDS011;9750;48.730;10.294;2022-09-09T14:43:32;3.33;;;1.50;;
19231;SDS011;9750;48.730;10.294;2022-09-09T14:46:04;3.72;;;1.30;;
19231;SDS011;9750;48.730;10.294;2022-09-09T14:48:32;2.92;;;1.38;;
19231;SDS011;9750;48.730;10.294;2022-09-09T14:51:06;5.05;;;1.67;;
19231;SDS011;9750;48.730;10.294;2022-09-09T14:53:33;1.33;;;1.10;;
19231;SDS011;9750;48.730;10.294;2022-09-09T14:56:05;3.72;;;1.15;;
19231;SDS011;9750;48.730;10.294;2022-09-09T14:58:33;2.67;;;1.40;;
19231;SDS011;9750;48.730;10.294;2022-09-09T15:01:02;2.35;;;1.38;;
19231;SDS011;9750;48.730;10.294;2022-09-09T15:03:30;2.38;;;1.20;;
19231;SDS011;9750;48.730;10.294;2022-09-09T15:05:57;2.38;;;1.27;;
19231;SDS011;9750;48.730;10.294;2022-09-09T15:08:26;3.45;;;1.50;;
19231;SDS011;9750;48.730;10.294;2022-09-09T15:10:58;3.83;;;1.50;;
19231;SDS011;9750;48.730;10.294;2022-09-09T15:13:26;2.70;;;1.30;;
19231;SDS011;9750;48.730;10.294;2022-09-09T15:15:54;3.22;;;1.33;;
19231;SDS011;9750;48.730;10.294;2022-09-09T15:18:23;2.83;;;1.52;;
19231;SDS011;9750;48.730;10.294;2022-09-09T15:20:50;1.67;;;1.30;;
19231;SDS011;9750;48.730;10.294;2022-09-09T15:23:18;3.85;;;1.58;;
19231;SDS011;9750;48.730;10.294;2022-09-09T15:25:53;2.00;;;1.17;;
19231;SDS011;9750;48.730;10.294;2022-09-09T15:28:22;2.90;;;1.60;;
19231;SDS011;9750;48.730;10.294;2022-09-09T15:30:50;2.30;;;1.17;;
19231;SDS011;9750;48.730;10.294;2022-09-09T15:33:18;2.72;;;1.42;;
19231;SDS011;9750;48.730;10.294;2022-09-09T15:35:46;2.17;;;1.30;;
19231;SDS011;9750;48.730;10.294;2022-09-09T15:38:13;2.30;;;1.42;;
19231;SDS011;9750;48.730;10.294;2022-09-09T15:40:41;3.17;;;1.48;;
19231;SDS011;9750;48.730;10.294;2022-09-09T15:46:45;2.63;;;1.30;;
19231;SDS011;9750;48.730;10.294;2022-09-09T15:49:15;6.40;;;1.40;;
19231;SDS011;9750;48.730;10.294;2022-09-09T15:51:44;3.25;;;1.40;;
19231;SDS011;9750;48.730;10.294;2022-09-09T15:54:14;3.75;;;1.40;;
19231;SDS011;9750;48.730;10.294;2022-09-09T15:56:43;1.73;;;1.20;;
19231;SDS011;9750;48.730;10.294;2022-09-09T15:59:11;1.90;;;1.33;;
19231;SDS011;9750;48.730;10.294;2022-09-09T16:01:40;3.50;;;1.38;;
19231;SDS011;9750;48.730;10.294;2022-09-09T16:04:09;3.97;;;1.50;;